Time;durP1;ratioP1;P1;durP2;ratioP2;P2;SDS_P1;SDS_P2;PMS_P1;PMS_P2;Temp;Humidity;BMP_temperature;BMP_pressure;BME280_temperature;BME280_humidity;BME280_pressure;Samples;Min_cycle;Max_cycle;Signal;HPM_P1;HPM_P2
2022/02/04 00:09:07;;;;;;;9.45;8.13;;;6.90;99.90;;;;;;5028956;28;20586;-61
2022/02/04 00:27:49;;;;;;;11.25;9.60;;;6.90;99.90;;;;;;5061893;28;20579;-61
2022/02/04 00:30:26;;;;;;;9.73;8.73;;;6.80;99.90;;;;;;5065514;28;20204;-61
2022/02/04 00:32:54;;;;;;;9.95;8.95;;;7.00;99.90;;;;;;5068798;28;20275;-61
2022/02/04 00:40:36;;;;;;;9.60;8.70;;;7.60;99.90;;;;;;5057941;28;20192;-61
2022/02/04 00:43:06;;;;;;;9.88;8.77;;;6.90;99.90;;;;;;5066763;28;20181;-61
2022/02/04 00:45:51;;;;;;;10.13;9.18;;;6.90;99.90;;;;;;5067925;28;20201;-61
2022/02/04 00:51:02;;;;;;;11.00;9.80;;;7.20;99.90;;;;;;5070463;28;20228;-61
2022/02/04 00:56:28;;;;;;;12.80;10.20;;;7.20;99.90;;;;;;5069026;28;20188;-61
2022/02/04 01:26:08;;;;;;;10.45;9.45;;;7.40;99.90;;;;;;5060216;28;20203;-62
2022/02/04 01:28:36;;;;;;;9.18;8.20;;;7.50;99.90;;;;;;5060420;28;20189;-62
2022/02/04 01:31:02;;;;;;;9.63;8.63;;;7.60;99.90;;;;;;5062023;28;20907;-62
2022/02/04 01:33:28;;;;;;;11.10;8.70;;;7.80;99.90;;;;;;5060227;28;20296;-62
2022/02/04 01:35:55;;;;;;;9.13;8.27;;;7.60;99.90;;;;;;5068154;28;20268;-62
2022/02/04 01:38:28;;;;;;;9.20;8.30;;;7.70;99.90;;;;;;5063944;28;20948;-62
2022/02/04 01:40:55;;;;;;;10.80;8.40;;;7.90;99.90;;;;;;5067985;28;20195;-62
2022/02/04 01:43:22;;;;;;;9.15;8.20;;;7.50;99.90;;;;;;5061553;28;20249;-61
2022/02/04 01:45:55;;;;;;;8.38;7.60;;;7.70;99.90;;;;;;5069290;28;20910;-62
2022/02/04 01:48:21;;;;;;;8.70;7.32;;;7.50;99.90;;;;;;5063596;28;20212;-61
2022/02/04 01:50:48;;;;;;;9.70;8.30;;;7.90;99.90;;;;;;5064631;28;20227;-62
2022/02/04 01:53:16;;;;;;;7.88;7.10;;;7.90;99.90;;;;;;5064731;28;20857;-62
2022/02/04 01:55:46;;;;;;;7.35;6.38;;;7.80;99.90;;;;;;5067062;28;20270;-62
2022/02/04 01:58:12;;;;;;;8.93;6.93;;;8.10;99.90;;;;;;5068894;28;20189;-62
2022/02/04 02:00:39;;;;;;;6.70;6.03;;;8.20;99.90;;;;;;5061274;28;20348;-62
2022/02/04 02:03:06;;;;;;;6.88;6.18;;;7.90;99.90;;;;;;5063825;28;20234;-62
2022/02/04 02:05:32;;;;;;;7.45;6.75;;;8.10;99.90;;;;;;5065507;28;20185;-62
2022/02/04 02:08:12;;;;;;;7.25;6.55;;;7.80;99.90;;;;;;5068868;28;20181;-62
2022/02/04 02:10:39;;;;;;;8.63;6.30;;;8.10;99.90;;;;;;5067273;28;20182;-62
2022/02/04 02:15:52;;;;;;;9.27;7.30;;;8.10;99.90;;;;;;5066485;28;20592;-62
2022/02/04 02:45:49;;;;;;;6.35;5.75;;;8.20;99.90;;;;;;5059690;28;20209;-61
2022/02/04 02:53:47;;;;;;;8.45;7.32;;;8.20;99.90;;;;;;5066026;28;20188;-62
2022/02/04 02:59:01;;;;;;;8.43;7.45;;;8.50;99.90;;;;;;5065980;28;20268;-61
2022/02/04 03:01:28;;;;;;;8.27;7.30;;;8.30;99.90;;;;;;5064371;28;20191;-62
2022/02/04 03:03:56;;;;;;;7.60;6.80;;;8.40;99.90;;;;;;5064342;28;20213;-62
2022/02/04 03:06:22;;;;;;;8.52;7.72;;;8.20;99.90;;;;;;5068992;28;20279;-62
2022/02/04 03:08:48;;;;;;;8.65;7.70;;;8.30;99.90;;;;;;5064553;28;20579;-61
2022/02/04 03:11:14;;;;;;;8.17;7.27;;;7.60;99.90;;;;;;5067903;28;20189;-62
2022/02/04 03:13:43;;;;;;;8.35;7.55;;;7.70;99.90;;;;;;5071075;28;20456;-62
2022/02/04 03:16:12;;;;;;;8.30;7.50;;;7.80;99.90;;;;;;5069758;28;20191;-63
2022/02/04 03:18:42;;;;;;;11.68;9.10;;;8.00;99.90;;;;;;5071292;28;20176;-63
2022/02/04 03:21:17;;;;;;;8.90;8.00;;;7.90;99.90;;;;;;5071307;28;20183;-63
2022/02/04 03:23:48;;;;;;;8.57;7.68;;;8.00;99.90;;;;;;5069932;28;20279;-63
2022/02/04 03:26:25;;;;;;;10.93;7.25;;;8.50;99.90;;;;;;5062387;28;20177;-63
2022/02/04 03:28:51;;;;;;;8.90;7.45;;;7.30;99.90;;;;;;5065197;28;20172;-64
2022/02/04 03:31:17;;;;;;;8.13;7.30;;;7.80;99.90;;;;;;5070429;28;20184;-63
2022/02/04 03:33:44;;;;;;;8.23;7.43;;;7.90;99.90;;;;;;5068314;28;20205;-63
2022/02/04 03:36:10;;;;;;;8.90;8.00;;;7.90;99.90;;;;;;5071889;28;20211;-63
2022/02/04 03:38:35;;;;;;;8.63;7.83;;;7.70;99.90;;;;;;5068739;28;20185;-64
2022/02/04 03:41:01;;;;;;;7.77;6.97;;;8.00;99.90;;;;;;5074061;28;20440;-63
2022/02/04 03:43:27;;;;;;;7.70;7.00;;;7.90;99.90;;;;;;5067707;28;20197;-63
2022/02/04 03:45:52;;;;;;;6.27;5.63;;;8.10;99.90;;;;;;5062459;28;20223;-63
2022/02/04 03:48:18;;;;;;;6.00;5.40;;;8.10;99.90;;;;;;5064600;28;20230;-63
2022/02/04 03:50:43;;;;;;;5.80;5.10;;;8.20;99.90;;;;;;5068470;28;20196;-63
2022/02/04 03:53:16;;;;;;;6.00;5.50;;;8.10;99.90;;;;;;5067765;28;20189;-63
2022/02/04 03:55:42;;;;;;;6.38;5.78;;;8.20;99.90;;;;;;5069610;28;20697;-63
2022/02/04 03:58:09;;;;;;;6.78;6.18;;;8.20;99.90;;;;;;5064330;28;20182;-63
2022/02/04 04:00:34;;;;;;;6.20;5.60;;;8.00;99.90;;;;;;5070700;28;20169;-62
2022/02/04 04:03:00;;;;;;;8.40;6.80;;;8.20;99.90;;;;;;5067860;28;20184;-63
2022/02/04 04:05:27;;;;;;;6.30;5.70;;;7.70;99.90;;;;;;5068582;28;20204;-63
2022/02/04 04:07:53;;;;;;;6.90;6.30;;;7.80;99.90;;;;;;5067352;28;20192;-63
2022/02/04 04:10:23;;;;;;;6.90;6.30;;;8.00;99.90;;;;;;5067547;28;20200;-64
2022/02/04 04:12:49;;;;;;;7.13;6.30;;;7.90;99.90;;;;;;5067099;28;20226;-64
2022/02/04 04:15:15;;;;;;;6.80;6.10;;;8.10;99.90;;;;;;5065882;28;20266;-63
2022/02/04 04:17:43;;;;;;;6.57;5.82;;;7.80;99.90;;;;;;5064774;28;20234;-63
2022/02/04 04:20:12;;;;;;;6.40;5.80;;;7.70;99.90;;;;;;5069719;28;20232;-67
2022/02/04 04:22:38;;;;;;;7.05;6.35;;;7.80;99.90;;;;;;5063387;28;20185;-63
2022/02/04 04:25:05;;;;;;;6.30;5.70;;;8.00;99.90;;;;;;5066369;28;20243;-63
2022/02/04 04:27:31;;;;;;;5.80;5.20;;;7.90;99.90;;;;;;5070462;28;20254;-64
2022/02/04 04:29:56;;;;;;;5.73;5.20;;;7.80;99.90;;;;;;5066972;28;20186;-63
2022/02/04 04:32:22;;;;;;;5.60;5.10;;;7.90;99.90;;;;;;5066395;28;20433;-63
2022/02/04 04:34:47;;;;;;;6.57;5.97;;;7.80;99.90;;;;;;5060809;28;20705;-63
2022/02/04 04:37:13;;;;;;;7.53;6.50;;;7.90;99.90;;;;;;5061763;28;20255;-64
2022/02/04 04:39:53;;;;;;;6.63;6.03;;;7.90;99.90;;;;;;5070168;28;20276;-63
2022/02/04 04:42:30;;;;;;;6.68;6.07;;;7.80;99.90;;;;;;5062250;28;20238;-64
2022/02/04 04:45:25;;;;;;;7.95;7.25;;;7.80;99.90;;;;;;5062129;28;20621;-63
2022/02/04 05:31:21;;;;;;;7.00;6.40;;;7.90;99.90;;;;;;5067539;28;20650;-61
2022/02/04 05:33:48;;;;;;;6.03;5.43;;;7.70;99.90;;;;;;5057449;28;20224;-61
2022/02/04 05:36:14;;;;;;;5.90;5.35;;;7.60;99.90;;;;;;5058920;28;20762;-61
2022/02/04 05:38:41;;;;;;;6.50;5.80;;;7.70;99.90;;;;;;5069536;28;20185;-61
2022/02/04 05:41:10;;;;;;;6.55;5.95;;;7.30;99.90;;;;;;5059565;28;20182;-61
2022/02/04 05:43:39;;;;;;;6.22;5.63;;;7.70;99.90;;;;;;5061498;28;20221;-61
2022/02/04 05:46:12;;;;;;;5.70;5.20;;;7.10;99.90;;;;;;5063898;28;20258;-61
2022/02/04 05:48:42;;;;;;;5.50;4.93;;;7.50;99.90;;;;;;5065366;28;20181;-62
2022/02/04 05:51:26;;;;;;;5.80;5.22;;;7.80;99.90;;;;;;5068388;28;20177;-61
2022/02/04 05:54:10;;;;;;;6.35;5.70;;;7.70;99.90;;;;;;5067825;28;20286;-61
2022/02/04 05:56:51;;;;;;;6.38;5.80;;;7.70;99.90;;;;;;5066798;28;20185;-61
2022/02/04 06:02:37;;;;;;;5.60;5.10;;;7.70;99.90;;;;;;5029211;28;20191;-61
2022/02/04 06:05:30;;;;;;;5.65;5.05;;;7.60;99.90;;;;;;5029320;28;20575;-61
2022/02/04 06:24:02;;;;;;;7.00;6.00;;;7.60;99.90;;;;;;5068327;28;20353;-61
2022/02/04 06:26:29;;;;;;;7.90;6.17;;;7.40;99.90;;;;;;5064973;28;20658;-61
2022/02/04 06:28:55;;;;;;;7.25;6.53;;;7.40;99.90;;;;;;5066337;28;20184;-61
2022/02/04 06:31:22;;;;;;;7.28;6.57;;;7.20;99.90;;;;;;5070410;28;20188;-61
2022/02/04 06:33:48;;;;;;;6.95;6.20;;;7.10;99.90;;;;;;5064324;28;20211;-61
2022/02/04 06:36:13;;;;;;;6.80;6.10;;;7.50;99.90;;;;;;5065678;28;20185;-61
2022/02/04 06:38:39;;;;;;;6.90;5.63;;;7.40;99.90;;;;;;5062560;28;20444;-60
2022/02/04 06:41:05;;;;;;;6.83;6.13;;;7.30;99.90;;;;;;5067341;28;20246;-60
2022/02/04 06:43:31;;;;;;;6.00;5.43;;;7.30;99.90;;;;;;5061585;28;20212;-60
2022/02/04 06:45:57;;;;;;;9.70;6.18;;;7.40;99.90;;;;;;5067519;28;20594;-60
2022/02/04 06:48:23;;;;;;;6.80;6.10;;;7.20;99.90;;;;;;5058608;28;20192;-60
2022/02/04 06:50:48;;;;;;;8.40;7.60;;;7.30;99.90;;;;;;5066959;28;20267;-60
2022/02/04 06:53:14;;;;;;;9.10;7.07;;;7.10;99.90;;;;;;5057732;28;20192;-61
2022/02/04 06:55:40;;;;;;;7.43;6.73;;;6.80;99.90;;;;;;5056571;28;20745;-62
2022/02/04 06:58:07;;;;;;;6.18;5.57;;;7.00;99.90;;;;;;5069356;28;20268;-60
2022/02/04 07:00:33;;;;;;;7.10;6.22;;;6.90;99.90;;;;;;5062274;28;20269;-60
2022/02/04 07:02:58;;;;;;;8.17;5.90;;;6.90;99.90;;;;;;5059986;28;20267;-59
2022/02/04 07:05:25;;;;;;;6.70;5.67;;;7.00;99.90;;;;;;5061086;28;20251;-60
2022/02/04 07:08:19;;;;;;;7.63;5.93;;;7.20;99.90;;;;;;5056014;28;20268;-59
2022/02/04 07:13:21;;;;;;;7.97;6.93;;;7.30;99.90;;;;;;5058268;28;20561;-60
2022/02/04 07:20:57;;;;;;;10.00;6.50;;;7.20;99.90;;;;;;5059175;28;20195;-58
2022/02/04 07:23:22;;;;;;;7.40;5.97;;;7.30;99.90;;;;;;5068097;28;20181;-60
2022/02/04 07:25:48;;;;;;;6.57;6.07;;;7.30;99.90;;;;;;5061865;28;20406;-60
2022/02/04 07:28:13;;;;;;;5.93;5.33;;;7.40;99.90;;;;;;5060511;28;20189;-59
2022/02/04 07:30:40;;;;;;;7.00;6.40;;;7.50;99.90;;;;;;5064292;28;20185;-61
2022/02/04 07:33:19;;;;;;;7.63;6.00;;;7.10;99.90;;;;;;5060898;28;20193;-61
2022/02/04 07:41:11;;;;;;;6.70;6.00;;;8.00;99.90;;;;;;5062087;28;20215;-60
2022/02/04 07:43:37;;;;;;;6.53;5.27;;;7.50;99.90;;;;;;5061796;28;20224;-61
2022/02/04 07:46:03;;;;;;;6.60;5.17;;;7.60;99.90;;;;;;5059139;28;20274;-61
2022/02/04 07:48:29;;;;;;;6.45;5.75;;;7.90;99.90;;;;;;5063491;28;20239;-60
2022/02/04 07:50:55;;;;;;;7.07;6.37;;;7.90;99.90;;;;;;5059255;28;20256;-60
2022/02/04 07:53:23;;;;;;;6.70;6.00;;;7.90;99.90;;;;;;5063630;28;20507;-60
2022/02/04 07:55:49;;;;;;;7.55;6.85;;;8.10;99.90;;;;;;5070935;28;20208;-65
2022/02/04 07:58:16;;;;;;;7.93;6.55;;;8.00;99.90;;;;;;5058688;28;20195;-64
2022/02/04 08:00:42;;;;;;;9.23;6.93;;;7.50;99.90;;;;;;5070767;28;20181;-60
2022/02/04 08:05:42;;;;;;;7.18;6.47;;;7.30;99.90;;;;;;5060312;28;20193;-61
2022/02/04 08:08:20;;;;;;;7.45;6.75;;;7.60;99.90;;;;;;5069210;28;20255;-61
2022/02/04 08:16:57;;;;;;;7.45;6.05;;;7.80;99.90;;;;;;5068098;28;20235;-58
2022/02/04 08:31:44;;;;;;;7.68;6.93;;;7.60;99.90;;;;;;5067954;28;20276;-57
2022/02/04 08:34:30;;;;;;;6.97;6.30;;;7.80;99.90;;;;;;5068422;28;20212;-57
2022/02/04 08:55:57;;;;;;;8.10;6.63;;;7.80;99.90;;;;;;5058806;28;20212;-60
2022/02/04 09:03:30;;;;;;;6.50;5.88;;;8.00;99.90;;;;;;5070469;28;20189;-64
2022/02/04 09:06:15;;;;;;;7.30;6.50;;;7.80;99.90;;;;;;5070321;28;20264;-64
2022/02/04 09:08:45;;;;;;;7.53;6.55;;;8.00;99.90;;;;;;5062375;28;20558;-58
2022/02/04 09:11:16;;;;;;;7.32;6.63;;;8.30;99.90;;;;;;5058984;28;20181;-57
2022/02/04 09:19:17;;;;;;;7.00;6.35;;;8.50;99.90;;;;;;5068471;28;20246;-62
2022/02/04 09:24:20;;;;;;;5.82;5.15;;;9.70;99.90;;;;;;5064116;28;20212;-61
2022/02/04 09:26:46;;;;;;;7.05;6.35;;;10.00;99.90;;;;;;5061579;28;20677;-56
2022/02/04 09:29:12;;;;;;;5.47;4.90;;;10.40;99.90;;;;;;5068362;28;20270;-58
2022/02/04 09:31:38;;;;;;;5.07;4.57;;;10.60;99.90;;;;;;5065891;28;20627;-60
2022/02/04 09:34:05;;;;;;;5.45;4.95;;;10.20;99.90;;;;;;5060146;28;20698;-61
2022/02/04 09:36:32;;;;;;;5.30;4.88;;;9.90;99.90;;;;;;5069199;28;20224;-61
2022/02/04 09:38:59;;;;;;;4.22;3.83;;;10.00;99.90;;;;;;5065963;28;20207;-62
2022/02/04 09:41:25;;;;;;;4.10;3.70;;;9.90;99.90;;;;;;5060950;28;20192;-61
2022/02/04 09:43:51;;;;;;;4.18;3.78;;;9.90;99.90;;;;;;5066583;28;20584;-61
2022/02/04 09:46:18;;;;;;;4.18;3.78;;;9.80;99.90;;;;;;5066056;28;20244;-61
2022/02/04 09:48:48;;;;;;;3.90;3.60;;;9.60;99.90;;;;;;5061703;28;20175;-61
2022/02/04 09:51:17;;;;;;;3.10;2.90;;;9.60;99.90;;;;;;5070692;28;20940;-61
2022/02/04 10:13:13;;;;;;;4.45;4.05;;;9.80;99.90;;;;;;5070130;28;20200;-61
2022/02/04 10:18:32;;;;;;;2.95;2.70;;;9.70;99.90;;;;;;5063540;28;20199;-62
2022/02/04 10:21:16;;;;;;;3.47;3.17;;;10.00;99.90;;;;;;5069554;28;20616;-63
2022/02/04 10:23:49;;;;;;;2.50;2.30;;;10.00;99.90;;;;;;5063832;28;20616;-60
2022/02/04 10:26:15;;;;;;;2.95;2.70;;;9.90;99.90;;;;;;5069123;28;20203;-60
2022/02/04 10:28:41;;;;;;;3.30;3.00;;;10.10;99.90;;;;;;5070069;28;20183;-60
2022/02/04 10:31:21;;;;;;;3.08;2.88;;;10.10;99.90;;;;;;5070000;28;20231;-60
2022/02/04 10:34:04;;;;;;;3.00;2.75;;;10.20;99.90;;;;;;5069895;28;20205;-60
2022/02/04 10:45:00;;;;;;;3.00;2.80;;;9.90;99.90;;;;;;5070611;28;20243;-61
2022/02/04 11:03:16;;;;;;;2.72;2.53;;;10.30;99.90;;;;;;5058212;28;20272;-61
2022/02/04 11:08:51;;;;;;;1.70;1.60;;;10.30;99.90;;;;;;5069161;28;20435;-61
2022/02/04 11:31:02;;;;;;;3.05;2.75;;;10.30;99.90;;;;;;5066214;28;20220;-62
2022/02/04 11:31:04;;;;;;;2.70;2.40;;;10.30;99.90;;;;;;5069153;28;20247;-62
2022/02/04 11:36:23;;;;;;;2.45;2.25;;;9.80;99.90;;;;;;5074246;28;20211;-60
2022/02/04 11:52:18;;;;;;;1.63;1.52;;;9.90;99.90;;;;;;5072957;28;20231;-61
2022/02/04 11:57:01;;;;;;;1.85;1.73;;;10.00;99.90;;;;;;5066529;28;20185;-61
2022/02/04 11:59:43;;;;;;;1.85;1.75;;;10.10;99.90;;;;;;5072678;28;20642;-61
2022/02/04 12:02:24;;;;;;;2.00;1.80;;;10.30;99.90;;;;;;5065115;28;20204;-61
2022/02/04 12:05:14;;;;;;;2.00;1.50;;;10.30;99.90;;;;;;5071050;28;20232;-61
2022/02/04 12:07:47;;;;;;;2.38;1.30;;;10.30;99.90;;;;;;5070694;28;20220;-61
2022/02/04 12:10:13;;;;;;;1.30;1.20;;;10.10;99.60;;;;;;5070776;28;20647;-61
2022/02/04 12:12:55;;;;;;;1.53;1.43;;;10.00;99.80;;;;;;5070445;28;20203;-60
2022/02/04 12:15:47;;;;;;;4.85;1.80;;;10.00;99.70;;;;;;5072521;28;20289;-61
2022/02/04 12:18:21;;;;;;;1.55;1.45;;;9.50;99.90;;;;;;5055611;28;20529;-61
2022/02/04 12:20:47;;;;;;;1.60;1.50;;;9.70;99.90;;;;;;5068709;28;20193;-61
2022/02/04 12:23:36;;;;;;;1.70;1.60;;;9.80;99.90;;;;;;5072355;28;20188;-61
2022/02/04 12:26:15;;;;;;;1.90;1.70;;;9.70;99.90;;;;;;5070364;28;20292;-61
2022/02/04 12:29:05;;;;;;;2.30;2.10;;;10.00;99.90;;;;;;5066480;28;20212;-61
2022/02/04 12:31:42;;;;;;;2.08;1.50;;;9.70;99.90;;;;;;5070060;28;20185;-61
2022/02/04 12:34:12;;;;;;;2.65;1.63;;;9.80;99.90;;;;;;5071501;28;20261;-61
2022/02/04 12:36:51;;;;;;;5.38;2.15;;;9.90;99.90;;;;;;5071916;28;20272;-61
2022/02/04 12:39:22;;;;;;;2.97;1.48;;;9.70;99.90;;;;;;5052552;28;20181;-63
2022/02/04 12:41:59;;;;;;;1.45;1.35;;;10.00;99.90;;;;;;5067616;28;20207;-62
2022/02/04 12:44:33;;;;;;;3.45;1.67;;;9.90;99.90;;;;;;5075304;28;20200;-59
2022/02/04 12:47:01;;;;;;;1.30;1.20;;;10.10;99.70;;;;;;5061831;28;20188;-60
2022/02/04 12:49:29;;;;;;;1.10;1.00;;;9.60;99.80;;;;;;5072430;28;20219;-60
2022/02/04 12:54:51;;;;;;;1.52;1.10;;;9.40;99.70;;;;;;5067710;28;20212;-60
2022/02/04 13:10:23;;;;;;;1.50;1.40;;;9.70;99.30;;;;;;5071682;28;20212;-61
2022/02/04 13:12:51;;;;;;;1.90;1.60;;;9.80;98.70;;;;;;5060347;28;20318;-61
2022/02/04 13:15:18;;;;;;;2.17;1.73;;;10.00;98.30;;;;;;5061503;28;20220;-62
2022/02/04 13:17:44;;;;;;;1.40;1.30;;;9.60;98.50;;;;;;5067484;28;20183;-61
2022/02/04 13:20:11;;;;;;;2.00;1.70;;;9.90;98.50;;;;;;5067031;28;20189;-61
2022/02/04 13:22:38;;;;;;;2.00;1.60;;;10.20;97.90;;;;;;5063704;28;20181;-60
2022/02/04 13:25:20;;;;;;;1.67;1.58;;;9.90;98.40;;;;;;5061903;28;20237;-59
2022/02/04 13:28:20;;;;;;;4.65;1.90;;;9.80;98.30;;;;;;5060439;28;20185;-61
2022/02/04 13:31:04;;;;;;;1.50;1.40;;;9.60;98.50;;;;;;5047894;28;20193;-60
2022/02/04 13:33:39;;;;;;;2.17;1.92;;;9.70;98.80;;;;;;5056865;28;20205;-59
2022/02/04 13:36:28;;;;;;;2.08;1.90;;;9.70;98.70;;;;;;5065068;28;20200;-58
2022/02/04 13:39:28;;;;;;;1.50;1.40;;;9.60;98.90;;;;;;5053908;28;20549;-61
2022/02/04 13:51:50;;;;;;;1.40;1.30;;;9.70;98.30;;;;;;5065620;28;20689;-63
2022/02/04 14:00:44;;;;;;;1.60;1.50;;;9.50;98.40;;;;;;5066999;28;20193;-59
2022/02/04 14:03:24;;;;;;;1.70;1.60;;;9.50;98.10;;;;;;5055132;28;20537;-64
2022/02/04 14:05:58;;;;;;;3.33;1.77;;;9.50;98.70;;;;;;5067608;28;20185;-57
2022/02/04 14:08:36;;;;;;;2.30;1.55;;;9.40;98.80;;;;;;5070080;28;20200;-58
2022/02/04 14:11:05;;;;;;;2.42;1.60;;;9.30;98.60;;;;;;5053949;28;20189;-61
2022/02/04 14:13:32;;;;;;;2.15;1.65;;;9.50;98.60;;;;;;5060605;28;20216;-60
2022/02/04 14:16:05;;;;;;;1.52;1.40;;;9.40;98.80;;;;;;5061058;28;20213;-61
2022/02/04 14:18:32;;;;;;;1.40;1.30;;;9.20;98.60;;;;;;5067672;28;20276;-60
2022/02/04 14:20:58;;;;;;;1.40;1.30;;;9.40;98.70;;;;;;5062083;28;20173;-61
2022/02/04 14:23:24;;;;;;;1.30;1.20;;;9.30;98.90;;;;;;5062265;28;20213;-61
2022/02/04 14:25:57;;;;;;;1.90;1.40;;;9.30;98.50;;;;;;5064461;28;20557;-62
2022/02/04 14:28:36;;;;;;;1.30;1.20;;;9.40;98.70;;;;;;5065073;28;20196;-62
2022/02/04 14:31:27;;;;;;;2.80;1.73;;;9.30;98.70;;;;;;5064340;28;20690;-57
2022/02/04 14:36:36;;;;;;;1.20;1.10;;;9.50;98.30;;;;;;5061572;28;20193;-62
2022/02/04 14:50:33;;;;;;;1.10;1.00;;;9.30;98.90;;;;;;5065805;28;20242;-59
2022/02/04 14:53:13;;;;;;;1.45;1.13;;;9.20;98.40;;;;;;5056182;28;20185;-61
2022/02/04 15:04:22;;;;;;;3.47;1.20;;;9.20;98.80;;;;;;5050313;28;20209;-60
2022/02/04 15:06:57;;;;;;;1.83;1.02;;;9.20;98.90;;;;;;5061930;28;20190;-60
2022/02/04 15:09:22;;;;;;;1.05;0.95;;;9.20;98.50;;;;;;5059155;28;20189;-64
2022/02/04 15:11:48;;;;;;;1.20;1.10;;;9.40;99.00;;;;;;5067920;28;20271;-63
2022/02/04 15:14:16;;;;;;;2.43;2.07;;;9.40;98.90;;;;;;5069573;28;20713;-64
2022/02/04 15:16:44;;;;;;;2.20;1.40;;;9.00;99.30;;;;;;5064182;28;20415;-61
2022/02/04 15:19:09;;;;;;;1.80;1.40;;;9.10;99.50;;;;;;5071906;28;20204;-60
2022/02/04 15:21:35;;;;;;;1.03;0.93;;;9.30;99.40;;;;;;5066621;28;20178;-63
2022/02/04 15:24:03;;;;;;;1.50;1.00;;;9.40;99.10;;;;;;5068868;28;20302;-62
2022/02/04 15:26:29;;;;;;;1.92;1.23;;;9.20;98.80;;;;;;5069260;28;20311;-60
2022/02/04 15:29:01;;;;;;;0.80;0.80;;;9.20;99.00;;;;;;5065324;28;20544;-63
2022/02/04 15:32:02;;;;;;;1.08;1.00;;;9.10;99.00;;;;;;5068626;28;20239;-59
2022/02/04 15:34:20;;;;;;;0.80;0.80;;;9.40;99.00;;;;;;5072239;28;20212;-61
2022/02/04 15:36:48;;;;;;;0.90;0.82;;;9.20;98.90;;;;;;5060524;28;20543;-59
2022/02/04 15:39:16;;;;;;;2.17;1.30;;;9.20;99.10;;;;;;5069637;28;20181;-59
2022/02/04 15:41:42;;;;;;;0.80;0.80;;;9.20;99.40;;;;;;5066796;28;20169;-61
2022/02/04 15:44:16;;;;;;;2.85;1.10;;;9.10;99.10;;;;;;5065803;28;20589;-63
2022/02/04 15:47:11;;;;;;;1.10;0.93;;;9.20;99.40;;;;;;5066872;28;20185;-61
2022/02/04 15:50:00;;;;;;;1.25;1.10;;;9.10;99.50;;;;;;5064205;28;20185;-60
2022/02/04 16:05:09;;;;;;;1.00;0.88;;;9.10;99.80;;;;;;5070956;28;20295;-61
2022/02/04 16:07:36;;;;;;;1.25;1.10;;;9.00;99.80;;;;;;5071159;28;20192;-59
2022/02/04 16:12:52;;;;;;;1.92;1.30;;;8.50;99.70;;;;;;5064048;28;20915;-60
2022/02/04 16:15:32;;;;;;;1.08;0.95;;;9.10;99.90;;;;;;5071357;28;20224;-60
2022/02/04 16:18:01;;;;;;;1.33;1.17;;;8.90;99.90;;;;;;5059886;28;20197;-60
2022/02/04 16:20:52;;;;;;;1.80;1.20;;;8.90;99.90;;;;;;5071567;28;20185;-59
2022/02/04 16:23:26;;;;;;;1.27;1.17;;;8.80;99.90;;;;;;5067671;28;20499;-59
2022/02/04 16:31:02;;;;;;;1.55;0.90;;;8.70;99.90;;;;;;5057608;28;20191;-59
2022/02/04 16:33:28;;;;;;;1.20;1.10;;;8.70;99.90;;;;;;5066704;28;20263;-59
2022/02/04 16:36:01;;;;;;;1.07;0.97;;;8.40;99.90;;;;;;5069198;28;20345;-60
2022/02/04 16:38:27;;;;;;;1.55;1.30;;;8.90;99.90;;;;;;5066464;28;20457;-60
2022/02/04 16:40:56;;;;;;;1.00;0.93;;;8.80;99.90;;;;;;5071071;28;20188;-59
2022/02/04 16:43:22;;;;;;;1.48;1.10;;;8.50;99.90;;;;;;5067387;28;20546;-58
2022/02/04 16:45:50;;;;;;;1.15;1.00;;;8.80;99.90;;;;;;5058088;28;20506;-58
2022/02/04 16:48:17;;;;;;;1.40;0.88;;;8.60;99.90;;;;;;5070016;28;20271;-59
2022/02/04 16:50:44;;;;;;;1.10;1.00;;;8.70;99.90;;;;;;5071146;28;20258;-59
2022/02/04 16:53:09;;;;;;;1.00;0.90;;;8.60;99.90;;;;;;5069861;28;20185;-58
2022/02/04 16:55:35;;;;;;;1.03;0.93;;;8.50;99.90;;;;;;5071871;28;20563;-58
2022/02/04 16:58:01;;;;;;;2.07;1.67;;;8.60;99.90;;;;;;5069258;28;20259;-59
2022/02/04 17:00:26;;;;;;;1.30;1.03;;;8.60;99.90;;;;;;5071563;28;20213;-59
2022/02/04 17:02:56;;;;;;;1.10;1.00;;;8.60;99.90;;;;;;5060863;28;20242;-58
2022/02/04 17:05:25;;;;;;;1.40;1.30;;;8.60;99.90;;;;;;5062690;28;20839;-58
2022/02/04 17:07:57;;;;;;;1.23;1.00;;;8.60;99.90;;;;;;5066651;28;20185;-58
2022/02/04 17:10:29;;;;;;;1.17;0.93;;;8.60;99.90;;;;;;5062482;28;20567;-58
2022/02/04 17:13:01;;;;;;;1.17;1.00;;;8.50;99.90;;;;;;5068614;28;20184;-59
2022/02/04 17:15:38;;;;;;;1.73;0.90;;;8.50;99.80;;;;;;5072048;28;20205;-58
2022/02/04 17:18:06;;;;;;;0.80;0.80;;;8.40;99.90;;;;;;5061920;28;20250;-58
2022/02/04 17:20:33;;;;;;;1.30;1.20;;;8.50;99.80;;;;;;5069381;28;20259;-59
2022/02/04 17:23:02;;;;;;;1.45;1.20;;;8.60;99.90;;;;;;5070069;28;20208;-58
2022/02/04 17:25:29;;;;;;;1.10;1.00;;;8.40;99.70;;;;;;5066733;28;20522;-58
2022/02/04 17:27:57;;;;;;;1.02;0.93;;;8.50;99.70;;;;;;5069253;28;20624;-58
2022/02/04 17:30:23;;;;;;;0.80;0.80;;;8.50;99.90;;;;;;5068469;28;20208;-58
2022/02/04 17:32:50;;;;;;;1.30;1.10;;;8.60;99.90;;;;;;5071788;28;20688;-58
2022/02/04 17:35:17;;;;;;;1.17;1.08;;;8.70;99.90;;;;;;5069203;28;20543;-58
2022/02/04 17:37:43;;;;;;;1.17;1.02;;;8.60;99.70;;;;;;5067467;28;20272;-57
2022/02/04 17:40:12;;;;;;;1.17;0.93;;;8.70;99.70;;;;;;5068204;28;20183;-59
2022/02/04 17:42:43;;;;;;;1.17;1.00;;;8.70;99.70;;;;;;5070675;28;20545;-58
2022/02/04 17:45:11;;;;;;;1.17;1.08;;;8.60;99.50;;;;;;5068225;28;20209;-57
2022/02/04 17:47:38;;;;;;;1.50;1.13;;;8.70;99.50;;;;;;5060572;28;20572;-58
2022/02/04 17:50:21;;;;;;;1.55;1.10;;;8.70;99.50;;;;;;5074960;28;20642;-59
2022/02/04 17:52:53;;;;;;;1.50;1.25;;;8.90;99.50;;;;;;5062307;28;20264;-58
2022/02/04 17:55:27;;;;;;;1.40;1.30;;;8.80;99.80;;;;;;5063677;28;20585;-59
2022/02/04 17:57:56;;;;;;;2.08;0.90;;;8.60;99.50;;;;;;5060424;28;20180;-58
2022/02/04 18:08:04;;;;;;;1.60;1.50;;;8.60;99.90;;;;;;5076703;28;20181;-57
2022/02/04 18:10:29;;;;;;;1.45;1.10;;;8.70;99.80;;;;;;5065877;28;20649;-57
2022/02/04 18:12:55;;;;;;;1.70;1.30;;;8.80;99.90;;;;;;5063243;28;20193;-59
2022/02/04 18:15:22;;;;;;;1.70;1.60;;;8.80;99.90;;;;;;5062894;28;20223;-57
2022/02/04 18:17:48;;;;;;;1.37;1.17;;;8.50;99.90;;;;;;5067659;28;20181;-58
2022/02/04 18:20:14;;;;;;;1.30;1.02;;;8.60;99.90;;;;;;5070232;28;20180;-59
2022/02/04 18:22:41;;;;;;;3.17;1.45;;;8.50;99.90;;;;;;5063402;28;20228;-58
2022/02/04 18:25:07;;;;;;;1.52;1.42;;;8.50;99.90;;;;;;5069444;28;20208;-57
2022/02/04 18:27:33;;;;;;;1.80;1.40;;;8.50;99.90;;;;;;5064866;28;20185;-57
2022/02/04 18:30:00;;;;;;;3.65;1.40;;;8.40;99.90;;;;;;5066058;28;20195;-57
2022/02/04 18:32:26;;;;;;;1.00;0.90;;;8.60;99.90;;;;;;5064353;28;20272;-57
2022/02/04 18:34:54;;;;;;;1.40;1.10;;;8.70;99.90;;;;;;5068442;28;20685;-59
2022/02/04 18:37:29;;;;;;;1.40;1.30;;;8.50;99.90;;;;;;5069992;28;20184;-57
2022/02/04 18:45:13;;;;;;;1.20;1.00;;;8.40;99.90;;;;;;5069904;28;20710;-58
2022/02/04 18:50:39;;;;;;;1.65;1.45;;;8.20;99.90;;;;;;5064245;28;20208;-58
2022/02/04 18:58:04;;;;;;;1.60;1.50;;;8.20;99.90;;;;;;5062416;28;20202;-58
2022/02/04 19:00:30;;;;;;;2.10;1.90;;;8.30;99.90;;;;;;5064281;28;20223;-60
2022/02/04 19:02:59;;;;;;;1.93;1.70;;;8.20;99.90;;;;;;5067561;28;20466;-59
2022/02/04 19:05:31;;;;;;;1.65;1.40;;;8.00;99.90;;;;;;5062217;28;20202;-62
2022/02/04 19:10:28;;;;;;;3.95;1.80;;;8.20;99.90;;;;;;5058330;28;20652;-58
2022/02/04 19:12:59;;;;;;;1.20;1.10;;;8.20;99.90;;;;;;5065690;28;20212;-57
2022/02/04 19:15:44;;;;;;;1.52;1.30;;;8.30;99.90;;;;;;5069902;28;20207;-57
2022/02/04 19:18:21;;;;;;;0.95;0.85;;;8.00;99.90;;;;;;5063979;28;20638;-58
2022/02/04 19:21:09;;;;;;;2.22;1.80;;;8.10;99.90;;;;;;5055231;28;20181;-56
2022/02/04 19:23:37;;;;;;;1.50;1.40;;;8.10;99.90;;;;;;5069759;28;20201;-56
2022/02/04 19:26:13;;;;;;;2.75;1.60;;;7.80;99.90;;;;;;5063940;28;20189;-57
2022/02/04 19:28:38;;;;;;;3.55;1.40;;;8.10;99.90;;;;;;5066072;28;20556;-58
2022/02/04 19:31:04;;;;;;;1.50;1.40;;;8.10;99.90;;;;;;5069769;28;20189;-58
2022/02/04 19:33:30;;;;;;;2.00;1.70;;;8.10;99.90;;;;;;5059294;28;20258;-59
2022/02/04 19:35:58;;;;;;;1.65;1.23;;;8.00;99.90;;;;;;5069229;28;20209;-56
2022/02/04 19:38:23;;;;;;;1.42;1.33;;;8.20;99.90;;;;;;5065745;28;20235;-57
2022/02/04 19:40:49;;;;;;;1.73;1.60;;;8.10;99.90;;;;;;5061222;28;20193;-58
2022/02/04 19:43:19;;;;;;;3.20;1.40;;;8.10;99.90;;;;;;5061797;28;20576;-57
2022/02/04 19:48:50;;;;;;;1.33;1.20;;;8.10;99.90;;;;;;5052960;28;20197;-57
2022/02/04 19:51:28;;;;;;;1.60;1.50;;;8.10;99.90;;;;;;5054505;28;20631;-59
2022/02/04 20:25:39;;;;;;;1.23;1.13;;;8.60;99.90;;;;;;5069029;28;20239;-58
2022/02/04 20:28:10;;;;;;;1.40;1.10;;;8.60;99.90;;;;;;5072648;28;20185;-58
2022/02/04 20:30:39;;;;;;;1.80;1.15;;;8.70;99.90;;;;;;5065136;28;20193;-58
2022/02/04 20:33:05;;;;;;;1.10;1.00;;;8.60;99.90;;;;;;5065028;28;20185;-59
2022/02/04 20:35:31;;;;;;;2.25;1.10;;;8.70;99.90;;;;;;5067365;28;20307;-57
2022/02/04 20:37:57;;;;;;;1.30;1.20;;;9.10;99.90;;;;;;5063922;28;20283;-58
2022/02/04 20:40:31;;;;;;;0.80;0.80;;;8.90;99.90;;;;;;5075075;28;20447;-58